sensor_id;sensor_type;location;lat;lon;timestamp;pressure;altitude;pressure_sealevel;temperature;humidity
59073;BME280;44859;51.934;15.554;2023-03-04T00:00:30;99879.96;;;-0.53;100.00
59073;BME280;44859;51.934;15.554;2023-03-04T00:03:19;99884.63;;;-0.53;100.00
59073;BME280;44859;51.934;15.554;2023-03-04T00:05:57;99888.06;;;-0.52;100.00
59073;BME280;44859;51.934;15.554;2023-03-04T00:08:46;99885.30;;;-0.50;100.00
59073;BME280;44859;51.934;15.554;2023-03-04T00:11:35;99886.67;;;-0.47;100.00
59073;BME280;44859;51.934;15.554;2023-03-04T00:14:12;99889.09;;;-0.46;100.00
59073;BME280;44859;51.934;15.554;2023-03-04T00:16:49;99889.09;;;-0.44;100.00
59073;BME280;44859;51.934;15.554;2023-03-04T00:19:35;99887.70;;;-0.43;100.00
59073;BME280;44859;51.934;15.554;2023-03-04T00:22:20;99888.90;;;-0.43;100.00
59073;BME280;44859;51.934;15.554;2023-03-04T00:24:52;99880.11;;;-0.41;100.00
59073;BME280;44859;51.934;15.554;2023-03-04T00:27:26;99880.27;;;-0.40;100.00
59073;BME280;44859;51.934;15.554;2023-03-04T00:30:00;99880.79;;;-0.39;100.00
59073;BME280;44859;51.934;15.554;2023-03-04T00:32:28;99873.88;;;-0.36;100.00
59073;BME280;44859;51.934;15.554;2023-03-04T00:34:57;99875.08;;;-0.34;100.00
59073;BME280;44859;51.934;15.554;2023-03-04T00:37:29;99867.15;;;-0.34;100.00
59073;BME280;44859;51.934;15.554;2023-03-04T00:40:01;99864.55;;;-0.34;100.00
59073;BME280;44859;51.934;15.554;2023-03-04T00:42:41;99868.02;;;-0.33;100.00
59073;BME280;44859;51.934;15.554;2023-03-04T00:45:12;99854.38;;;-0.32;100.00
59073;BME280;44859;51.934;15.554;2023-03-04T00:48:06;99838.67;;;-0.32;100.00
59073;BME280;44859;51.934;15.554;2023-03-04T00:50:49;99836.42;;;-0.32;100.00
59073;BME280;44859;51.934;15.554;2023-03-04T00:53:31;99835.72;;;-0.32;100.00
59073;BME280;44859;51.934;15.554;2023-03-04T00:56:31;99840.21;;;-0.31;100.00
59073;BME280;44859;51.934;15.554;2023-03-04T00:59:35;99837.80;;;-0.32;100.00
59073;BME280;44859;51.934;15.554;2023-03-04T01:03:28;99840.55;;;-0.30;100.00
59073;BME280;44859;51.934;15.554;2023-03-04T01:06:10;99838.66;;;-0.30;100.00
59073;BME280;44859;51.934;15.554;2023-03-04T01:44:52;99801.89;;;-0.28;100.00
59073;BME280;44859;51.934;15.554;2023-03-04T01:48:26;99787.71;;;-0.26;99.96
59073;BME280;44859;51.934;15.554;2023-03-04T02:04:12;99754.59;;;-0.25;99.32
59073;BME280;44859;51.934;15.554;2023-03-04T02:07:35;99747.50;;;-0.24;99.16
59073;BME280;44859;51.934;15.554;2023-03-04T02:10:58;99741.45;;;-0.21;98.75
59073;BME280;44859;51.934;15.554;2023-03-04T02:18:45;99732.80;;;-0.19;98.97
59073;BME280;44859;51.934;15.554;2023-03-04T02:38:15;99698.70;;;-0.07;98.35
59073;BME280;44859;51.934;15.554;2023-03-04T02:41:28;99700.77;;;-0.04;98.16
59073;BME280;44859;51.934;15.554;2023-03-04T02:44:46;99700.76;;;-0.02;97.88
59073;BME280;44859;51.934;15.554;2023-03-04T02:47:34;99698.13;;;0.03;97.82
59073;BME280;44859;51.934;15.554;2023-03-04T02:50:52;99692.77;;;0.04;97.41
59073;BME280;44859;51.934;15.554;2023-03-04T02:53:47;99689.50;;;0.02;97.72
59073;BME280;44859;51.934;15.554;2023-03-04T02:56:54;99695.02;;;0.04;97.42
59073;BME280;44859;51.934;15.554;2023-03-04T02:59:47;99691.38;;;0.04;97.36
59073;BME280;44859;51.934;15.554;2023-03-04T03:02:37;99691.20;;;0.05;97.76
59073;BME280;44859;51.934;15.554;2023-03-04T03:05:27;99688.44;;;0.05;97.39
59073;BME280;44859;51.934;15.554;2023-03-04T03:08:28;99684.46;;;0.07;97.31
59073;BME280;44859;51.934;15.554;2023-03-04T03:11:02;99688.60;;;0.08;97.07
59073;BME280;44859;51.934;15.554;2023-03-04T03:14:05;99693.94;;;0.10;97.00
59073;BME280;44859;51.934;15.554;2023-03-04T03:16:50;99688.75;;;0.11;96.90
59073;BME280;44859;51.934;15.554;2023-03-04T03:19:31;99690.64;;;0.12;96.73
59073;BME280;44859;51.934;15.554;2023-03-04T03:22:29;99686.67;;;0.11;97.23
59073;BME280;44859;51.934;15.554;2023-03-04T03:25:08;99684.42;;;0.11;97.00
59073;BME280;44859;51.934;15.554;2023-03-04T03:28:29;99678.20;;;0.12;96.97
59073;BME280;44859;51.934;15.554;2023-03-04T03:31:02;99672.67;;;0.12;97.02
59073;BME280;44859;51.934;15.554;2023-03-04T03:34:11;99664.56;;;0.11;96.68
59073;BME280;44859;51.934;15.554;2023-03-04T03:37:14;99673.54;;;0.12;96.61
59073;BME280;44859;51.934;15.554;2023-03-04T03:39:53;99674.05;;;0.13;96.61
59073;BME280;44859;51.934;15.554;2023-03-04T03:42:34;99668.34;;;0.14;96.54
59073;BME280;44859;51.934;15.554;2023-03-04T03:45:46;99664.71;;;0.14;96.41
59073;BME280;44859;51.934;15.554;2023-03-04T03:49:01;99660.39;;;0.13;96.40
59073;BME280;44859;51.934;15.554;2023-03-04T03:51:39;99654.54;;;0.13;96.40
59073;BME280;44859;51.934;15.554;2023-03-04T03:54:29;99643.65;;;0.13;95.82
59073;BME280;44859;51.934;15.554;2023-03-04T03:57:12;99643.80;;;0.14;95.87
59073;BME280;44859;51.934;15.554;2023-03-04T04:03:04;99636.55;;;0.15;94.96
59073;BME280;44859;51.934;15.554;2023-03-04T04:05:37;99646.73;;;0.16;94.88
59073;BME280;44859;51.934;15.554;2023-03-04T04:08:30;99643.46;;;0.15;94.99
59073;BME280;44859;51.934;15.554;2023-03-04T04:11:27;99643.11;;;0.15;94.76
59073;BME280;44859;51.934;15.554;2023-03-04T04:14:52;99641.56;;;0.14;94.53
59073;BME280;44859;51.934;15.554;2023-03-04T04:17:14;99637.07;;;0.14;94.60
59073;BME280;44859;51.934;15.554;2023-03-04T04:19:45;99642.63;;;0.13;94.48
59073;BME280;44859;51.934;15.554;2023-03-04T04:22:16;99650.73;;;0.13;94.40
59073;BME280;44859;51.934;15.554;2023-03-04T04:24:49;99656.09;;;0.13;94.57
59073;BME280;44859;51.934;15.554;2023-03-04T04:27:32;99660.59;;;0.12;94.50
59073;BME280;44859;51.934;15.554;2023-03-04T04:30:08;99662.32;;;0.11;94.44
59073;BME280;44859;51.934;15.554;2023-03-04T04:33:15;99659.73;;;0.12;94.31
59073;BME280;44859;51.934;15.554;2023-03-04T04:36:03;99663.52;;;0.11;94.20
59073;BME280;44859;51.934;15.554;2023-03-04T04:39:04;99659.39;;;0.10;94.25
59073;BME280;44859;51.934;15.554;2023-03-04T04:41:42;99663.35;;;0.11;94.28
59073;BME280;44859;51.934;15.554;2023-03-04T04:44:33;99656.29;;;0.09;94.27
59073;BME280;44859;51.934;15.554;2023-03-04T04:47:16;99656.63;;;0.09;94.14
59073;BME280;44859;51.934;15.554;2023-03-04T04:53:04;99653.70;;;0.10;94.45
59073;BME280;44859;51.934;15.554;2023-03-04T04:55:40;99654.38;;;0.09;94.75
59073;BME280;44859;51.934;15.554;2023-03-04T04:58:42;99650.42;;;0.08;94.90
59073;BME280;44859;51.934;15.554;2023-03-04T05:01:24;99646.63;;;0.07;95.00
59073;BME280;44859;51.934;15.554;2023-03-04T05:04:24;99647.33;;;0.08;95.18
59073;BME280;44859;51.934;15.554;2023-03-04T05:07:06;99647.84;;;0.07;95.42
59073;BME280;44859;51.934;15.554;2023-03-04T05:12:31;99643.72;;;0.05;95.66
59073;BME280;44859;51.934;15.554;2023-03-04T05:15:16;99642.00;;;0.04;96.05
59073;BME280;44859;51.934;15.554;2023-03-04T05:17:53;99643.55;;;0.05;96.40
59073;BME280;44859;51.934;15.554;2023-03-04T05:20:44;99645.28;;;0.04;96.53
59073;BME280;44859;51.934;15.554;2023-03-04T05:23:45;99643.21;;;0.04;96.82
59073;BME280;44859;51.934;15.554;2023-03-04T05:26:31;99642.67;;;0.05;96.68
59073;BME280;44859;51.934;15.554;2023-03-04T05:32:49;99642.67;;;0.08;97.15
59073;BME280;44859;51.934;15.554;2023-03-04T05:35:25;99643.87;;;0.09;97.46
59073;BME280;44859;51.934;15.554;2023-03-04T05:37:58;99639.20;;;0.10;97.39
59073;BME280;44859;51.934;15.554;2023-03-04T05:40:32;99640.39;;;0.13;97.58
59073;BME280;44859;51.934;15.554;2023-03-04T05:43:14;99635.52;;;0.14;97.66
59073;BME280;44859;51.934;15.554;2023-03-04T05:46:00;99635.88;;;0.15;97.74
59073;BME280;44859;51.934;15.554;2023-03-04T05:48:37;99633.63;;;0.16;97.84
59073;BME280;44859;51.934;15.554;2023-03-04T05:51:36;99631.19;;;0.17;98.31
59073;BME280;44859;51.934;15.554;2023-03-04T05:54:29;99632.89;;;0.18;98.12
59073;BME280;44859;51.934;15.554;2023-03-04T05:57:08;99622.19;;;0.18;98.32
59073;BME280;44859;51.934;15.554;2023-03-04T05:59:44;99622.88;;;0.19;98.52
59073;BME280;44859;51.934;15.554;2023-03-04T06:02:25;99626.50;;;0.20;98.67
59073;BME280;44859;51.934;15.554;2023-03-04T06:05:27;99619.41;;;0.21;98.69
59073;BME280;44859;51.934;15.554;2023-03-04T06:08:27;99622.69;;;0.22;98.86
59073;BME280;44859;51.934;15.554;2023-03-04T06:11:05;99620.42;;;0.23;99.09
59073;BME280;44859;51.934;15.554;2023-03-04T06:13:34;99617.48;;;0.23;99.04
59073;BME280;44859;51.934;15.554;2023-03-04T06:16:35;99618.69;;;0.25;99.18
59073;BME280;44859;51.934;15.554;2023-03-04T06:19:20;99614.86;;;0.27;99.58
59073;BME280;44859;51.934;15.554;2023-03-04T06:21:54;99618.46;;;0.29;99.47
59073;BME280;44859;51.934;15.554;2023-03-04T06:24:40;99613.63;;;0.29;99.54
59073;BME280;44859;51.934;15.554;2023-03-04T06:30:41;99615.66;;;0.32;99.80
59073;BME280;44859;51.934;15.554;2023-03-04T06:33:21;99616.88;;;0.33;99.69
59073;BME280;44859;51.934;15.554;2023-03-04T06:35:58;99618.77;;;0.35;99.96
59073;BME280;44859;51.934;15.554;2023-03-04T06:38:34;99622.38;;;0.37;99.93
59073;BME280;44859;51.934;15.554;2023-03-04T06:41:18;99622.02;;;0.38;99.97
59073;BME280;44859;51.934;15.554;2023-03-04T06:43:46;99624.41;;;0.40;99.94
59073;BME280;44859;51.934;15.554;2023-03-04T06:46:16;99623.17;;;0.43;99.96
59073;BME280;44859;51.934;15.554;2023-03-04T06:48:44;99622.62;;;0.46;99.97
59073;BME280;44859;51.934;15.554;2023-03-04T06:51:11;99624.50;;;0.48;100.00
59073;BME280;44859;51.934;15.554;2023-03-04T06:53:42;99626.72;;;0.51;100.00
59073;BME280;44859;51.934;15.554;2023-03-04T06:56:18;99625.46;;;0.55;99.99
59073;BME280;44859;51.934;15.554;2023-03-04T06:58:54;99630.80;;;0.56;100.00
59073;BME280;44859;51.934;15.554;2023-03-04T07:01:24;99628.01;;;0.60;100.00
59073;BME280;44859;51.934;15.554;2023-03-04T07:03:53;99630.40;;;0.61;100.00
59073;BME280;44859;51.934;15.554;2023-03-04T07:06:30;99629.02;;;0.62;100.00
59073;BME280;44859;51.934;15.554;2023-03-04T07:09:41;99621.02;;;0.67;100.00
59073;BME280;44859;51.934;15.554;2023-03-04T07:12:37;99626.49;;;0.71;100.00
59073;BME280;44859;51.934;15.554;2023-03-04T07:15:41;99627.84;;;0.74;100.00
59073;BME280;44859;51.934;15.554;2023-03-04T07:18:44;99626.61;;;0.77;100.00
59073;BME280;44859;51.934;15.554;2023-03-04T07:21:41;99624.33;;;0.79;100.00
59073;BME280;44859;51.934;15.554;2023-03-04T07:27:47;99622.16;;;0.87;100.00
59073;BME280;44859;51.934;15.554;2023-03-04T07:30:14;99621.24;;;0.92;100.00
59073;BME280;44859;51.934;15.554;2023-03-04T07:32:41;99622.95;;;0.95;100.00
59073;BME280;44859;51.934;15.554;2023-03-04T07:35:08;99622.94;;;0.96;99.99
59073;BME280;44859;51.934;15.554;2023-03-04T07:37:39;99620.65;;;0.98;99.98
59073;BME280;44859;51.934;15.554;2023-03-04T07:40:12;99624.59;;;1.02;99.96
59073;BME280;44859;51.934;15.554;2023-03-04T07:42:39;99629.06;;;1.04;99.99
59073;BME280;44859;51.934;15.554;2023-03-04T07:45:11;99623.87;;;1.04;99.95
59073;BME280;44859;51.934;15.554;2023-03-04T07:47:39;99622.63;;;1.05;100.00
59073;BME280;44859;51.934;15.554;2023-03-04T07:50:09;99621.58;;;1.06;100.00
59073;BME280;44859;51.934;15.554;2023-03-04T07:52:41;99617.59;;;1.08;100.00
59073;BME280;44859;51.934;15.554;2023-03-04T07:55:10;99623.41;;;1.11;99.95
59073;BME280;44859;51.934;15.554;2023-03-04T07:57:42;99621.85;;;1.12;100.00
59073;BME280;44859;51.934;15.554;2023-03-04T08:00:12;99625.51;;;1.12;100.00
59073;BME280;44859;51.934;15.554;2023-03-04T08:02:41;99618.73;;;1.14;100.00
59073;BME280;44859;51.934;15.554;2023-03-04T08:05:08;99616.45;;;1.15;100.00
59073;BME280;44859;51.934;15.554;2023-03-04T08:07:35;99615.75;;;1.16;100.00
59073;BME280;44859;51.934;15.554;2023-03-04T08:10:03;99617.84;;;1.16;100.00
59073;BME280;44859;51.934;15.554;2023-03-04T08:12:34;99620.20;;;1.20;100.00
59073;BME280;44859;51.934;15.554;2023-03-04T08:15:03;99608.73;;;1.24;100.00
59073;BME280;44859;51.934;15.554;2023-03-04T08:17:30;99612.16;;;1.26;100.00
59073;BME280;44859;51.934;15.554;2023-03-04T08:19:57;99615.77;;;1.28;100.00
59073;BME280;44859;51.934;15.554;2023-03-04T08:22:25;99614.63;;;1.35;100.00
59073;BME280;44859;51.934;15.554;2023-03-04T08:24:52;99617.96;;;1.45;100.00
59073;BME280;44859;51.934;15.554;2023-03-04T08:27:24;99615.75;;;1.54;100.00
59073;BME280;44859;51.934;15.554;2023-03-04T08:29:52;99608.34;;;1.63;100.00
59073;BME280;44859;51.934;15.554;2023-03-04T08:32:20;99609.34;;;1.65;100.00
59073;BME280;44859;51.934;15.554;2023-03-04T08:34:48;99612.52;;;1.72;100.00
59073;BME280;44859;51.934;15.554;2023-03-04T08:37:18;99613.46;;;1.79;100.00
59073;BME280;44859;51.934;15.554;2023-03-04T08:39:45;99612.53;;;1.84;100.00
59073;BME280;44859;51.934;15.554;2023-03-04T08:42:12;99611.13;;;1.84;100.00
59073;BME280;44859;51.934;15.554;2023-03-04T08:44:41;99611.78;;;1.87;100.00
59073;BME280;44859;51.934;15.554;2023-03-04T08:47:08;99606.36;;;1.90;100.00
59073;BME280;44859;51.934;15.554;2023-03-04T08:49:39;99606.39;;;1.88;100.00
59073;BME280;44859;51.934;15.554;2023-03-04T08:52:09;99604.75;;;1.93;100.00
59073;BME280;44859;51.934;15.554;2023-03-04T08:54:39;99599.65;;;1.97;100.00
59073;BME280;44859;51.934;15.554;2023-03-04T08:57:11;99605.23;;;1.96;100.00
59073;BME280;44859;51.934;15.554;2023-03-04T08:59:38;99607.04;;;2.02;100.00
59073;BME280;44859;51.934;15.554;2023-03-04T09:02:15;99602.62;;;2.07;100.00
59073;BME280;44859;51.934;15.554;2023-03-04T09:04:42;99602.27;;;2.07;100.00
59073;BME280;44859;51.934;15.554;2023-03-04T09:07:14;99607.91;;;2.01;100.00
59073;BME280;44859;51.934;15.554;2023-03-04T09:09:44;99602.42;;;1.97;100.00
59073;BME280;44859;51.934;15.554;2023-03-04T09:12:12;99598.23;;;2.00;100.00
59073;BME280;44859;51.934;15.554;2023-03-04T09:14:43;99595.39;;;2.05;100.00
59073;BME280;44859;51.934;15.554;2023-03-04T09:17:11;99593.04;;;2.10;100.00
59073;BME280;44859;51.934;15.554;2023-03-04T09:19:40;99590.73;;;2.13;100.00
59073;BME280;44859;51.934;15.554;2023-03-04T09:22:07;99592.64;;;2.12;100.00
59073;BME280;44859;51.934;15.554;2023-03-04T09:24:35;99591.20;;;2.15;100.00
59073;BME280;44859;51.934;15.554;2023-03-04T09:27:05;99596.52;;;2.19;100.00
59073;BME280;44859;51.934;15.554;2023-03-04T09:29:35;99597.11;;;2.15;100.00
59073;BME280;44859;51.934;15.554;2023-03-04T09:32:03;99589.92;;;2.09;100.00
59073;BME280;44859;51.934;15.554;2023-03-04T09:34:37;99588.57;;;2.08;100.00
59073;BME280;44859;51.934;15.554;2023-03-04T09:37:19;99591.31;;;2.09;100.00
59073;BME280;44859;51.934;15.554;2023-03-04T09:39:49;99585.13;;;2.07;100.00
59073;BME280;44859;51.934;15.554;2023-03-04T09:42:27;99584.10;;;2.06;100.00
59073;BME280;44859;51.934;15.554;2023-03-04T09:44:57;99582.45;;;2.11;100.00
59073;BME280;44859;51.934;15.554;2023-03-04T09:47:38;99579.45;;;2.13;100.00
59073;BME280;44859;51.934;15.554;2023-03-04T09:50:07;99576.66;;;2.15;100.00
59073;BME280;44859;51.934;15.554;2023-03-04T09:52:57;99581.70;;;2.14;100.00
59073;BME280;44859;51.934;15.554;2023-03-04T09:55:41;99581.50;;;2.06;100.00
59073;BME280;44859;51.934;15.554;2023-03-04T09:58:32;99581.03;;;2.03;100.00
59073;BME280;44859;51.934;15.554;2023-03-04T10:01:22;99579.48;;;2.02;100.00
59073;BME280;44859;51.934;15.554;2023-03-04T10:04:05;99576.53;;;2.03;100.00
59073;BME280;44859;51.934;15.554;2023-03-04T10:06:35;99574.17;;;2.09;100.00
59073;BME280;44859;51.934;15.554;2023-03-04T10:09:22;99572.48;;;2.16;100.00
59073;BME280;44859;51.934;15.554;2023-03-04T10:12:04;99573.33;;;2.16;100.00
59073;BME280;44859;51.934;15.554;2023-03-04T10:14:48;99569.21;;;2.15;100.00
59073;BME280;44859;51.934;15.554;2023-03-04T10:17:36;99574.80;;;2.12;100.00
59073;BME280;44859;51.934;15.554;2023-03-04T10:20:25;99580.77;;;2.09;100.00
59073;BME280;44859;51.934;15.554;2023-03-04T10:22:58;99574.35;;;2.09;100.00
59073;BME280;44859;51.934;15.554;2023-03-04T10:25:37;99570.40;;;2.06;100.00
59073;BME280;44859;51.934;15.554;2023-03-04T10:28:18;99573.18;;;2.16;100.00
59073;BME280;44859;51.934;15.554;2023-03-04T10:33:52;99570.87;;;2.29;100.00
59073;BME280;44859;51.934;15.554;2023-03-04T10:39:16;99564.80;;;2.48;100.00
59073;BME280;44859;51.934;15.554;2023-03-04T10:41:57;99565.33;;;2.56;100.00
59073;BME280;44859;51.934;15.554;2023-03-04T10:44:37;99558.74;;;2.57;100.00
59073;BME280;44859;51.934;15.554;2023-03-04T10:47:11;99561.86;;;2.65;100.00
59073;BME280;44859;51.934;15.554;2023-03-04T10:49:52;99556.70;;;2.80;100.00
59073;BME280;44859;51.934;15.554;2023-03-04T10:52:38;99558.29;;;2.86;100.00
59073;BME280;44859;51.934;15.554;2023-03-04T10:55:19;99554.53;;;2.93;100.00
59073;BME280;44859;51.934;15.554;2023-03-04T10:57:51;99554.04;;;2.91;100.00
59073;BME280;44859;51.934;15.554;2023-03-04T11:06:18;99553.00;;;2.82;100.00
59073;BME280;44859;51.934;15.554;2023-03-04T11:08:55;99547.78;;;2.83;100.00
59073;BME280;44859;51.934;15.554;2023-03-04T11:11:52;99547.13;;;2.81;100.00
59073;BME280;44859;51.934;15.554;2023-03-04T11:14:45;99547.04;;;2.86;100.00
59073;BME280;44859;51.934;15.554;2023-03-04T11:17:49;99546.20;;;2.84;100.00
59073;BME280;44859;51.934;15.554;2023-03-04T11:20:42;99543.30;;;2.90;100.00
59073;BME280;44859;51.934;15.554;2023-03-04T11:23:26;99546.92;;;2.99;100.00
59073;BME280;44859;51.934;15.554;2023-03-04T11:26:08;99537.52;;;3.01;100.00
59073;BME280;44859;51.934;15.554;2023-03-04T11:29:27;99535.71;;;3.12;100.00
59073;BME280;44859;51.934;15.554;2023-03-04T11:32:16;99530.30;;;3.21;100.00
59073;BME280;44859;51.934;15.554;2023-03-04T11:34:52;99528.63;;;3.34;100.00
59073;BME280;44859;51.934;15.554;2023-03-04T11:40:42;99526.24;;;3.46;100.00
59073;BME280;44859;51.934;15.554;2023-03-04T11:43:58;99524.23;;;3.43;100.00
59073;BME280;44859;51.934;15.554;2023-03-04T12:00:39;99536.77;;;3.27;100.00
59073;BME280;44859;51.934;15.554;2023-03-04T12:09:02;99538.23;;;2.76;100.00
59073;BME280;44859;51.934;15.554;2023-03-04T12:31:38;99515.28;;;3.82;100.00
59073;BME280;44859;51.934;15.554;2023-03-04T12:55:39;99522.38;;;3.97;95.81
59073;BME280;44859;51.934;15.554;2023-03-04T12:58:27;99521.02;;;3.90;95.30
59073;BME280;44859;51.934;15.554;2023-03-04T13:10:20;99511.10;;;3.90;93.19
59073;BME280;44859;51.934;15.554;2023-03-04T13:13:01;99515.56;;;3.92;93.28
59073;BME280;44859;51.934;15.554;2023-03-04T13:15:36;99515.41;;;3.91;92.61
59073;BME280;44859;51.934;15.554;2023-03-04T13:18:37;99516.71;;;3.88;92.52
59073;BME280;44859;51.934;15.554;2023-03-04T13:21:35;99519.95;;;3.84;92.10
59073;BME280;44859;51.934;15.554;2023-03-04T13:31:10;99516.90;;;3.88;92.04
59073;BME280;44859;51.934;15.554;2023-03-04T13:34:51;99513.35;;;3.90;91.09
59073;BME280;44859;51.934;15.554;2023-03-04T13:37:58;99513.79;;;3.87;91.08
59073;BME280;44859;51.934;15.554;2023-03-04T13:42:36;99507.03;;;3.86;91.17
59073;BME280;44859;51.934;15.554;2023-03-04T13:45:03;99509.47;;;3.86;90.88
59073;BME280;44859;51.934;15.554;2023-03-04T13:48:32;99508.16;;;3.89;90.29
59073;BME280;44859;51.934;15.554;2023-03-04T13:51:34;99504.23;;;4.00;89.27
59073;BME280;44859;51.934;15.554;2023-03-04T13:58:04;99505.54;;;4.17;84.91
59073;BME280;44859;51.934;15.554;2023-03-04T14:05:19;99504.33;;;4.17;84.75
59073;BME280;44859;51.934;15.554;2023-03-04T14:29:54;99500.20;;;4.08;79.08
59073;BME280;44859;51.934;15.554;2023-03-04T14:33:29;99496.09;;;4.06;78.06
59073;BME280;44859;51.934;15.554;2023-03-04T14:36:52;99495.80;;;4.04;77.83
59073;BME280;44859;51.934;15.554;2023-03-04T14:40:41;99490.41;;;4.03;76.97
59073;BME280;44859;51.934;15.554;2023-03-04T14:48:04;99491.93;;;3.99;76.58
59073;BME280;44859;51.934;15.554;2023-03-04T14:50:52;99498.77;;;3.97;76.65
59073;BME280;44859;51.934;15.554;2023-03-04T14:53:57;99498.67;;;3.94;77.08
59073;BME280;44859;51.934;15.554;2023-03-04T14:58:04;99500.43;;;3.93;77.19
59073;BME280;44859;51.934;15.554;2023-03-04T15:01:28;99499.56;;;3.93;77.03
59073;BME280;44859;51.934;15.554;2023-03-04T15:04:19;99500.70;;;3.89;77.12
59073;BME280;44859;51.934;15.554;2023-03-04T15:06:58;99503.20;;;3.86;76.75
59073;BME280;44859;51.934;15.554;2023-03-04T15:09:35;99502.21;;;3.84;76.86
59073;BME280;44859;51.934;15.554;2023-03-04T15:12:07;99505.55;;;3.83;76.80
59073;BME280;44859;51.934;15.554;2023-03-04T15:15:04;99501.80;;;3.80;76.61
59073;BME280;44859;51.934;15.554;2023-03-04T15:21:39;99505.14;;;3.72;75.68
59073;BME280;44859;51.934;15.554;2023-03-04T15:24:20;99504.32;;;3.69;75.79
59073;BME280;44859;51.934;15.554;2023-03-04T15:27:12;99509.27;;;3.66;75.49
59073;BME280;44859;51.934;15.554;2023-03-04T15:30:01;99508.30;;;3.63;75.51
59073;BME280;44859;51.934;15.554;2023-03-04T15:32:50;99504.54;;;3.61;75.41
59073;BME280;44859;51.934;15.554;2023-03-04T15:35:28;99501.23;;;3.62;75.28
59073;BME280;44859;51.934;15.554;2023-03-04T15:38:19;99498.17;;;3.58;74.94
59073;BME280;44859;51.934;15.554;2023-03-04T15:41:42;99491.18;;;3.53;74.38
59073;BME280;44859;51.934;15.554;2023-03-04T15:44:22;99493.67;;;3.51;74.47
59073;BME280;44859;51.934;15.554;2023-03-04T15:46:50;99498.37;;;3.51;73.88
59073;BME280;44859;51.934;15.554;2023-03-04T15:49:18;99505.45;;;3.52;73.98
59073;BME280;44859;51.934;15.554;2023-03-04T15:51:48;99506.66;;;3.52;73.82
59073;BME280;44859;51.934;15.554;2023-03-04T15:54:20;99509.23;;;3.53;74.37
59073;BME280;44859;51.934;15.554;2023-03-04T15:56:53;99508.77;;;3.52;74.54
59073;BME280;44859;51.934;15.554;2023-03-04T15:59:23;99513.30;;;3.50;74.44
59073;BME280;44859;51.934;15.554;2023-03-04T16:01:54;99515.63;;;3.48;73.88
59073;BME280;44859;51.934;15.554;2023-03-04T16:04:27;99514.63;;;3.46;73.76
59073;BME280;44859;51.934;15.554;2023-03-04T16:06:56;99517.79;;;3.44;73.90
59073;BME280;44859;51.934;15.554;2023-03-04T16:09:27;99518.34;;;3.43;73.99
59073;BME280;44859;51.934;15.554;2023-03-04T16:12:31;99515.78;;;3.41;74.15
59073;BME280;44859;51.934;15.554;2023-03-04T16:15:14;99515.66;;;3.39;74.12
59073;BME280;44859;51.934;15.554;2023-03-04T16:18:06;99518.68;;;3.36;73.85
59073;BME280;44859;51.934;15.554;2023-03-04T16:20:52;99522.17;;;3.35;73.52
59073;BME280;44859;51.934;15.554;2023-03-04T16:23:23;99522.02;;;3.34;73.80
59073;BME280;44859;51.934;15.554;2023-03-04T16:28:53;99524.31;;;3.40;73.89
59073;BME280;44859;51.934;15.554;2023-03-04T16:31:33;99527.30;;;3.39;73.86
59073;BME280;44859;51.934;15.554;2023-03-04T16:34:02;99528.94;;;3.35;74.11
59073;BME280;44859;51.934;15.554;2023-03-04T16:36:34;99528.65;;;3.33;73.54
59073;BME280;44859;51.934;15.554;2023-03-04T16:39:04;99531.64;;;3.31;73.93
59073;BME280;44859;51.934;15.554;2023-03-04T16:41:33;99533.43;;;3.29;73.84
59073;BME280;44859;51.934;15.554;2023-03-04T16:44:05;99535.38;;;3.27;74.16
59073;BME280;44859;51.934;15.554;2023-03-04T16:46:35;99536.45;;;3.26;74.08
59073;BME280;44859;51.934;15.554;2023-03-04T16:49:25;99539.05;;;3.26;73.93
59073;BME280;44859;51.934;15.554;2023-03-04T16:51:54;99544.64;;;3.24;73.80
59073;BME280;44859;51.934;15.554;2023-03-04T16:54:26;99544.48;;;3.22;74.04
59073;BME280;44859;51.934;15.554;2023-03-04T16:56:57;99546.94;;;3.22;74.07
59073;BME280;44859;51.934;15.554;2023-03-04T16:59:25;99549.52;;;3.22;73.88
59073;BME280;44859;51.934;15.554;2023-03-04T17:01:53;99551.58;;;3.23;73.84
59073;BME280;44859;51.934;15.554;2023-03-04T17:04:21;99552.32;;;3.22;73.78
59073;BME280;44859;51.934;15.554;2023-03-04T17:06:49;99558.59;;;3.21;73.77
59073;BME280;44859;51.934;15.554;2023-03-04T17:09:17;99562.43;;;3.19;74.04
59073;BME280;44859;51.934;15.554;2023-03-04T17:11:45;99565.73;;;3.20;74.10
59073;BME280;44859;51.934;15.554;2023-03-04T17:14:26;99574.44;;;3.18;74.27
59073;BME280;44859;51.934;15.554;2023-03-04T17:17:03;99575.94;;;3.14;74.29
59073;BME280;44859;51.934;15.554;2023-03-04T17:19:33;99583.86;;;3.00;75.10
59073;BME280;44859;51.934;15.554;2023-03-04T17:22:03;99586.55;;;2.78;76.16
59073;BME280;44859;51.934;15.554;2023-03-04T17:24:31;99590.50;;;2.63;76.79
59073;BME280;44859;51.934;15.554;2023-03-04T17:26:58;99591.81;;;2.49;77.51
59073;BME280;44859;51.934;15.554;2023-03-04T17:29:35;99592.38;;;2.38;78.22
59073;BME280;44859;51.934;15.554;2023-03-04T17:32:03;99594.56;;;2.32;78.58
59073;BME280;44859;51.934;15.554;2023-03-04T17:34:30;99592.59;;;2.26;78.99
59073;BME280;44859;51.934;15.554;2023-03-04T17:37:03;99594.56;;;2.22;79.21
59073;BME280;44859;51.934;15.554;2023-03-04T17:39:35;99592.73;;;2.17;79.41
59073;BME280;44859;51.934;15.554;2023-03-04T17:42:07;99596.08;;;2.14;79.26
59073;BME280;44859;51.934;15.554;2023-03-04T17:44:34;99602.50;;;2.14;79.61
59073;BME280;44859;51.934;15.554;2023-03-04T17:47:02;99606.29;;;2.14;79.65
59073;BME280;44859;51.934;15.554;2023-03-04T17:49:30;99607.87;;;2.12;79.59
59073;BME280;44859;51.934;15.554;2023-03-04T17:54:50;99614.02;;;2.19;79.74
59073;BME280;44859;51.934;15.554;2023-03-04T17:57:26;99619.58;;;2.17;79.54
59073;BME280;44859;51.934;15.554;2023-03-04T18:00:02;99619.12;;;2.14;79.54
59073;BME280;44859;51.934;15.554;2023-03-04T18:02:30;99616.55;;;2.12;79.60